createdAt,value
2019-05-18T00:00:31.431Z,21.40
2019-05-18T00:01:31.460Z,21.20
2019-05-18T00:02:31.513Z,21.40
2019-05-18T00:03:31.584Z,25.50
2019-05-18T00:04:31.638Z,20.80
2019-05-18T00:05:31.688Z,23.80
2019-05-18T00:06:31.677Z,27.10
2019-05-18T00:07:31.736Z,26.00
2019-05-18T00:08:31.807Z,24.40
2019-05-18T00:09:31.873Z,22.50
2019-05-18T00:10:31.857Z,22.90
2019-05-18T00:11:31.914Z,26.10
2019-05-18T00:12:31.941Z,23.80
2019-05-18T00:13:31.989Z,23.80
2019-05-18T00:14:32.058Z,22.70
2019-05-18T00:15:32.060Z,24.00
2019-05-18T00:16:32.117Z,24.70
2019-05-18T00:17:32.165Z,24.20
2019-05-18T00:18:32.203Z,25.80
2019-05-18T00:19:32.266Z,24.60
2019-05-18T00:20:32.263Z,23.60
2019-05-18T00:21:32.311Z,22.00
2019-05-18T00:22:32.404Z,22.30
2019-05-18T00:23:32.443Z,23.50
2019-05-18T00:24:32.502Z,24.10
2019-05-18T00:25:32.498Z,23.30
2019-05-18T00:26:32.524Z,25.10
2019-05-18T00:27:32.600Z,25.50
2019-05-18T00:28:32.621Z,23.30
2019-05-18T00:29:32.701Z,23.00
2019-05-18T00:30:32.722Z,21.20
2019-05-18T00:31:32.750Z,22.30
2019-05-18T00:32:32.808Z,20.40
2019-05-18T00:33:32.856Z,22.60
2019-05-18T00:34:32.924Z,22.40
2019-05-18T00:35:32.932Z,23.00
2019-05-18T00:36:32.957Z,21.20
2019-05-18T00:37:33.001Z,19.40
2019-05-18T00:38:33.042Z,22.50
2019-05-18T00:39:33.101Z,20.30
2019-05-18T00:40:33.171Z,22.70
2019-05-18T00:41:33.194Z,18.50
2019-05-18T00:42:33.215Z,19.40
2019-05-18T00:43:33.262Z,19.20
2019-05-18T00:44:33.316Z,18.00
2019-05-18T00:45:33.351Z,18.80
2019-05-18T00:46:33.402Z,19.20
2019-05-18T00:47:41.516Z,19.40
2019-05-18T00:48:33.470Z,19.20
2019-05-18T00:49:33.516Z,17.00
2019-05-18T00:50:33.582Z,17.60
2019-05-18T00:51:33.595Z,16.00
2019-05-18T00:52:33.657Z,20.90
2019-05-18T00:53:33.665Z,16.70
2019-05-18T00:54:33.738Z,19.40
2019-05-18T00:55:33.752Z,19.30
2019-05-18T00:56:33.803Z,18.70
2019-05-18T00:57:33.858Z,16.90
2019-05-18T00:58:33.904Z,16.80
2019-05-18T00:59:33.930Z,13.70
2019-05-18T01:00:33.962Z,14.50
2019-05-18T01:01:34.170Z,14.90
2019-05-18T01:02:34.247Z,15.60
2019-05-18T01:03:34.143Z,15.60
2019-05-18T01:04:34.217Z,13.50
2019-05-18T01:05:37.700Z,14.00
2019-05-18T01:06:34.276Z,14.80
2019-05-18T01:07:34.473Z,14.40
2019-05-18T01:08:34.480Z,14.70
2019-05-18T01:09:34.412Z,17.30
2019-05-18T01:10:34.454Z,13.90
2019-05-18T01:11:34.500Z,14.90
2019-05-18T01:12:34.556Z,16.10
2019-05-18T01:13:34.684Z,14.40
2019-05-18T01:14:34.761Z,13.90
2019-05-18T01:15:34.629Z,15.70
2019-05-18T01:16:34.658Z,14.60
2019-05-18T01:17:34.747Z,14.40
2019-05-18T01:18:34.802Z,15.10
2019-05-18T01:19:34.941Z,14.30
2019-05-18T01:20:34.893Z,15.00
2019-05-18T01:21:34.925Z,16.30
2019-05-18T01:22:35.005Z,15.60
2019-05-18T01:23:34.963Z,15.60
2019-05-18T01:24:35.038Z,18.10
2019-05-18T01:25:35.118Z,19.40
2019-05-18T01:26:35.091Z,15.50
2019-05-18T01:27:35.147Z,17.80
2019-05-18T01:28:35.234Z,17.00
2019-05-18T01:29:35.531Z,17.00
2019-05-18T01:30:35.367Z,16.70
2019-05-18T01:31:35.304Z,16.90
2019-05-18T01:32:35.422Z,17.80
2019-05-18T01:33:35.429Z,18.40
2019-05-18T01:34:35.427Z,20.50
2019-05-18T01:35:35.490Z,20.10
2019-05-18T01:36:35.750Z,17.70
2019-05-18T01:37:35.547Z,18.20
2019-05-18T01:38:35.622Z,21.50
2019-05-18T01:39:35.692Z,19.30
2019-05-18T01:40:35.746Z,19.60
2019-05-18T01:41:35.930Z,20.70
2019-05-18T01:42:35.799Z,21.40
2019-05-18T01:43:35.849Z,18.50
2019-05-18T01:44:35.837Z,19.70
2019-05-18T01:45:35.900Z,21.60
2019-05-18T01:46:35.929Z,18.40
2019-05-18T01:47:35.991Z,18.30
2019-05-18T01:48:36.035Z,21.70
2019-05-18T01:49:36.074Z,18.80
2019-05-18T01:50:36.145Z,24.20
2019-05-18T01:51:36.153Z,21.10
2019-05-18T01:52:36.177Z,20.40
2019-05-18T01:53:36.232Z,21.20
2019-05-18T01:54:36.277Z,19.70
2019-05-18T01:55:36.374Z,21.30
2019-05-18T01:56:36.378Z,20.40
2019-05-18T01:57:36.525Z,18.80
2019-05-18T01:58:36.462Z,21.40
2019-05-18T01:59:36.510Z,20.40
2019-05-18T02:00:36.523Z,20.90
2019-05-18T02:01:36.581Z,22.00
2019-05-18T02:02:36.632Z,22.80
2019-05-18T02:03:36.667Z,21.80
2019-05-18T02:04:36.723Z,21.90
2019-05-18T02:05:36.750Z,21.40
2019-05-18T02:06:36.797Z,21.10
2019-05-18T02:07:36.932Z,22.10
2019-05-18T02:08:36.885Z,21.20
2019-05-18T02:09:36.948Z,21.00
2019-05-18T02:10:36.952Z,23.60
2019-05-18T02:11:37.039Z,23.90
2019-05-18T02:12:37.035Z,27.70
2019-05-18T02:13:37.194Z,25.10
2019-05-18T02:14:37.132Z,27.40
2019-05-18T02:15:37.190Z,21.40
2019-05-18T02:16:37.223Z,23.10
2019-05-18T02:17:37.279Z,24.80
2019-05-18T02:18:37.343Z,24.10
2019-05-18T02:19:37.343Z,26.90
2019-05-18T02:20:37.394Z,26.10
2019-05-18T02:21:37.426Z,21.30
2019-05-18T02:22:37.487Z,29.90
2019-05-18T02:23:37.521Z,23.50
2019-05-18T02:24:37.545Z,22.70
2019-05-18T02:25:37.593Z,24.90
2019-05-18T02:26:37.623Z,24.00
2019-05-18T02:27:37.679Z,23.40
2019-05-18T02:28:37.722Z,25.20
2019-05-18T02:29:37.792Z,22.00
2019-05-18T02:30:37.840Z,23.10
2019-05-18T02:31:37.853Z,24.30
2019-05-18T02:32:37.917Z,27.70
2019-05-18T02:33:37.993Z,26.00
2019-05-18T02:34:38.032Z,24.20
2019-05-18T02:35:38.015Z,27.90
2019-05-18T02:36:38.091Z,23.90
2019-05-18T02:37:38.125Z,23.10
2019-05-18T02:38:38.142Z,26.60
2019-05-18T02:39:38.253Z,27.20
2019-05-18T02:40:38.239Z,28.30
2019-05-18T02:41:38.306Z,27.40
2019-05-18T02:42:38.316Z,26.90
2019-05-18T02:43:38.378Z,25.90
2019-05-18T02:44:38.396Z,26.30
2019-05-18T02:45:38.481Z,26.60
2019-05-18T02:46:38.518Z,27.60
2019-05-18T02:47:38.539Z,29.80
2019-05-18T02:48:48.556Z,23.60
2019-05-18T02:49:38.602Z,24.50
2019-05-18T02:50:38.733Z,27.30
2019-05-18T02:51:38.717Z,25.10
2019-05-18T02:52:38.768Z,25.00
2019-05-18T02:53:38.805Z,27.40
2019-05-18T02:54:38.817Z,22.90
2019-05-18T02:55:38.887Z,20.80
2019-05-18T02:56:38.930Z,25.40
2019-05-18T02:57:38.960Z,25.30
2019-05-18T02:58:39.017Z,24.50
2019-05-18T02:59:39.064Z,25.20
2019-05-18T03:00:39.104Z,27.50
2019-05-18T03:01:39.176Z,27.10
2019-05-18T03:02:39.188Z,25.60
2019-05-18T03:03:39.235Z,27.10
2019-05-18T03:04:39.258Z,27.50
2019-05-18T03:05:39.312Z,25.00
2019-05-18T03:06:39.349Z,30.80
2019-05-18T03:07:39.395Z,27.60
2019-05-18T03:08:39.449Z,31.20
2019-05-18T03:09:39.587Z,32.60
2019-05-18T03:10:39.531Z,32.00
2019-05-18T03:11:39.633Z,33.50
2019-05-18T03:12:39.623Z,27.80
2019-05-18T03:13:39.664Z,29.50
2019-05-18T03:14:39.700Z,27.90
2019-05-18T03:15:39.784Z,30.10
2019-05-18T03:16:39.833Z,30.00
2019-05-18T03:17:39.843Z,32.70
2019-05-18T03:18:39.886Z,28.20
2019-05-18T03:19:39.943Z,37.40
2019-05-18T03:20:39.965Z,30.20
2019-05-18T03:21:40.002Z,31.20
2019-05-18T03:22:40.060Z,24.70
2019-05-18T03:23:40.088Z,25.20
2019-05-18T03:24:40.137Z,31.60
2019-05-18T03:25:40.180Z,35.50
2019-05-18T03:26:40.230Z,33.50
2019-05-18T03:27:40.247Z,28.80
2019-05-18T03:28:40.309Z,26.60
2019-05-18T03:29:40.365Z,29.20
2019-05-18T03:30:40.376Z,30.10
2019-05-18T03:31:40.436Z,30.30
2019-05-18T03:32:40.501Z,29.70
2019-05-18T03:33:40.519Z,31.10
2019-05-18T03:34:40.561Z,27.70
2019-05-18T03:35:40.688Z,32.20
2019-05-18T03:36:40.656Z,32.50
2019-05-18T03:37:40.690Z,29.20
2019-05-18T03:38:40.718Z,30.40
2019-05-18T03:39:40.765Z,26.20
2019-05-18T03:40:40.814Z,23.80
2019-05-18T03:41:40.871Z,31.40
2019-05-18T03:42:40.954Z,30.20
2019-05-18T03:43:40.950Z,31.70
2019-05-18T03:44:40.985Z,34.30
2019-05-18T03:45:41.030Z,31.70
2019-05-18T03:46:41.067Z,29.60
2019-05-18T03:47:41.095Z,31.40
2019-05-18T03:48:41.153Z,31.10
2019-05-18T03:49:41.191Z,28.50
2019-05-18T03:50:41.254Z,30.90
2019-05-18T03:51:41.292Z,31.30
2019-05-18T03:52:41.347Z,31.10
2019-05-18T03:53:41.367Z,37.00
2019-05-18T03:54:41.405Z,41.70
2019-05-18T03:55:41.446Z,39.30
2019-05-18T03:56:41.530Z,42.20
2019-05-18T03:57:41.556Z,36.50
2019-05-18T03:58:41.585Z,33.80
2019-05-18T03:59:41.608Z,37.70
2019-05-18T04:00:41.669Z,36.90
2019-05-18T04:01:41.726Z,28.20
2019-05-18T04:02:41.761Z,30.10
2019-05-18T04:03:41.819Z,30.80
2019-05-18T04:04:41.940Z,32.00
2019-05-18T04:05:41.871Z,33.90
2019-05-18T04:06:41.979Z,33.50
2019-05-18T04:07:41.970Z,29.00
2019-05-18T04:08:42.008Z,26.70
2019-05-18T04:09:42.038Z,29.00
2019-05-18T04:10:42.095Z,31.50
2019-05-18T04:11:42.124Z,32.00
2019-05-18T04:12:42.199Z,36.40
2019-05-18T04:13:42.227Z,34.10
2019-05-18T04:14:42.252Z,34.40
2019-05-18T04:15:42.317Z,33.80
2019-05-18T04:16:42.352Z,33.60
2019-05-18T04:17:42.400Z,26.50
2019-05-18T04:18:42.469Z,27.40
2019-05-18T04:19:46.823Z,29.80
2019-05-18T04:20:42.538Z,28.10
2019-05-18T04:21:42.566Z,26.30
2019-05-18T04:22:42.622Z,26.00
2019-05-18T04:23:42.654Z,27.40
2019-05-18T04:24:42.699Z,24.10
2019-05-18T04:25:43.897Z,25.70
2019-05-18T04:26:42.821Z,24.90
2019-05-18T04:27:42.831Z,28.30
2019-05-18T04:28:42.883Z,26.20
2019-05-18T04:29:42.901Z,26.30
2019-05-18T04:30:42.951Z,27.40
2019-05-18T04:31:42.988Z,36.90
2019-05-18T04:32:43.020Z,33.40
2019-05-18T04:33:43.082Z,31.40
2019-05-18T04:34:43.118Z,32.10
2019-05-18T04:35:43.160Z,25.90
2019-05-18T04:36:43.198Z,26.70
2019-05-18T04:37:43.289Z,25.20
2019-05-18T04:38:43.296Z,26.80
2019-05-18T04:39:43.324Z,22.10
2019-05-18T04:40:43.388Z,26.10
2019-05-18T04:41:43.421Z,27.40
2019-05-18T04:42:43.473Z,24.80
2019-05-18T04:43:43.521Z,18.80
2019-05-18T04:44:43.579Z,19.80
2019-05-18T04:45:43.592Z,24.20
2019-05-18T04:46:43.641Z,20.80
2019-05-18T04:47:47.993Z,25.80
2019-05-18T04:48:43.731Z,28.60
2019-05-18T04:49:43.745Z,29.00
2019-05-18T04:50:43.797Z,26.40
2019-05-18T04:51:43.836Z,24.40
2019-05-18T04:52:43.873Z,23.50
2019-05-18T04:53:43.917Z,19.70
2019-05-18T04:54:43.987Z,23.40
2019-05-18T04:55:44.030Z,28.00
2019-05-18T04:56:44.093Z,21.80
2019-05-18T04:57:44.107Z,23.40
2019-05-18T04:58:44.142Z,19.60
2019-05-18T04:59:44.223Z,24.80
2019-05-18T05:00:44.233Z,19.90
2019-05-18T05:01:44.269Z,17.00
2019-05-18T05:02:44.358Z,16.60
2019-05-18T05:03:44.403Z,17.70
2019-05-18T05:04:44.399Z,17.20
2019-05-18T05:05:44.411Z,20.60
2019-05-18T05:06:44.475Z,20.90
2019-05-18T05:07:44.566Z,20.10
2019-05-18T05:08:44.540Z,19.60
2019-05-18T05:09:44.624Z,24.40
2019-05-18T05:10:44.647Z,24.50
2019-05-18T05:11:44.707Z,24.40
2019-05-18T05:12:44.739Z,22.90
2019-05-18T05:13:44.789Z,21.00
2019-05-18T05:14:44.793Z,21.90
2019-05-18T05:15:44.864Z,18.80
2019-05-18T05:16:44.907Z,22.50
2019-05-18T05:17:44.954Z,24.40
2019-05-18T05:18:44.996Z,23.30
2019-05-18T05:19:45.045Z,20.60
2019-05-18T05:20:45.086Z,20.20
2019-05-18T05:21:45.086Z,27.30
2019-05-18T05:22:45.147Z,23.40
2019-05-18T05:23:45.175Z,23.10
2019-05-18T05:24:45.236Z,14.10
2019-05-18T05:25:45.273Z,17.90
2019-05-18T05:26:45.379Z,17.60
2019-05-18T05:27:45.382Z,22.20
2019-05-18T05:28:45.429Z,25.20
2019-05-18T05:29:45.462Z,16.50
2019-05-18T05:30:45.490Z,21.50
2019-05-18T05:31:45.552Z,19.30
2019-05-18T05:32:45.590Z,26.00
2019-05-18T05:33:45.636Z,13.10
2019-05-18T05:34:45.668Z,13.90
2019-05-18T05:35:45.719Z,15.00
2019-05-18T05:36:45.755Z,17.20
2019-05-18T05:37:45.805Z,22.80
2019-05-18T05:38:45.846Z,18.10
2019-05-18T05:39:45.862Z,18.40
2019-05-18T05:40:45.922Z,19.60
2019-05-18T05:41:45.959Z,22.40
2019-05-18T05:42:45.994Z,20.60
2019-05-18T05:43:46.081Z,19.40
2019-05-18T05:44:46.089Z,18.90
2019-05-18T05:45:46.130Z,24.80
2019-05-18T05:46:46.257Z,18.80
2019-05-18T05:47:46.208Z,13.20
2019-05-18T05:48:46.266Z,18.50
2019-05-18T05:49:46.316Z,18.40
2019-05-18T05:50:46.334Z,21.10
2019-05-18T05:51:46.385Z,17.80
2019-05-18T05:52:46.434Z,18.70
2019-05-18T05:53:46.467Z,19.10
2019-05-18T05:54:46.509Z,17.60
2019-05-18T05:55:46.538Z,17.30
2019-05-18T05:56:46.599Z,17.80
2019-05-18T05:57:46.671Z,15.70
2019-05-18T05:58:46.686Z,14.10
2019-05-18T05:59:46.731Z,15.20
2019-05-18T06:00:46.769Z,13.20
2019-05-18T06:01:46.851Z,18.10
2019-05-18T06:02:46.866Z,15.60
2019-05-18T06:03:46.885Z,14.40
2019-05-18T06:04:46.933Z,11.70
2019-05-18T06:05:46.980Z,14.20
2019-05-18T06:06:47.016Z,13.70
2019-05-18T06:07:47.064Z,18.40
2019-05-18T06:08:47.100Z,15.60
2019-05-18T06:09:47.178Z,18.00
2019-05-18T06:10:47.200Z,16.00
2019-05-18T06:11:47.203Z,15.20
2019-05-18T06:12:47.258Z,13.90
2019-05-18T06:13:47.312Z,15.60
2019-05-18T06:14:47.349Z,17.90
2019-05-18T06:15:47.387Z,18.50
2019-05-18T06:16:47.423Z,22.30
2019-05-18T06:17:47.479Z,22.90
2019-05-18T06:18:47.503Z,15.20
2019-05-18T06:19:47.572Z,16.00
2019-05-18T06:20:51.584Z,16.80
2019-05-18T06:21:47.687Z,17.80
2019-05-18T06:22:47.723Z,18.80
2019-05-18T06:23:47.714Z,19.40
2019-05-18T06:24:47.749Z,18.80
2019-05-18T06:25:47.835Z,12.50
2019-05-18T06:26:47.848Z,16.60
2019-05-18T06:27:47.888Z,14.40
2019-05-18T06:28:47.928Z,13.20
2019-05-18T06:29:47.983Z,15.30
2019-05-18T06:30:48.022Z,15.70
2019-05-18T06:31:48.062Z,18.40
2019-05-18T06:32:48.108Z,16.00
2019-05-18T06:33:48.140Z,17.40
2019-05-18T06:34:48.209Z,17.80
2019-05-18T06:35:48.297Z,17.30
2019-05-18T06:36:48.336Z,18.20
2019-05-18T06:37:48.324Z,19.50
2019-05-18T06:38:48.374Z,16.80
2019-05-18T06:39:48.399Z,18.00
2019-05-18T06:40:48.442Z,19.20
2019-05-18T06:41:48.488Z,23.70
2019-05-18T06:42:48.525Z,22.50
2019-05-18T06:43:48.564Z,23.10
2019-05-18T06:44:48.689Z,21.30
2019-05-18T06:45:48.639Z,21.10
2019-05-18T06:46:48.698Z,21.30
2019-05-18T06:47:48.738Z,30.00
2019-05-18T06:48:48.785Z,27.30
2019-05-18T06:49:48.819Z,24.10
2019-05-18T06:50:48.873Z,22.60
2019-05-18T06:51:48.981Z,23.80
2019-05-18T06:52:48.936Z,25.10
2019-05-18T06:53:48.967Z,27.90
2019-05-18T06:54:49.033Z,28.20
2019-05-18T06:55:49.067Z,29.80
2019-05-18T06:56:49.111Z,30.60
2019-05-18T06:57:49.153Z,30.40
2019-05-18T06:58:49.223Z,30.00
2019-05-18T06:59:49.227Z,27.90
2019-05-18T07:00:49.281Z,29.30
2019-05-18T07:01:49.327Z,33.40
2019-05-18T07:02:49.429Z,28.20
2019-05-18T07:03:49.422Z,29.60
2019-05-18T07:04:49.496Z,43.40
2019-05-18T07:05:49.491Z,37.30
2019-05-18T07:06:49.546Z,34.20
2019-05-18T07:07:49.583Z,39.70
2019-05-18T07:08:49.603Z,35.00
2019-05-18T07:09:49.673Z,33.50
2019-05-18T07:10:49.686Z,36.70
2019-05-18T07:11:49.778Z,29.10
2019-05-18T07:12:49.790Z,27.40
2019-05-18T07:13:49.853Z,30.30
2019-05-18T07:14:49.857Z,29.10
2019-05-18T07:15:49.910Z,32.60
2019-05-18T07:16:50.022Z,30.20
2019-05-18T07:17:50.038Z,30.90
2019-05-18T07:18:50.057Z,31.20
2019-05-18T07:19:50.106Z,22.50
2019-05-18T07:20:50.157Z,26.30
2019-05-18T07:21:50.135Z,26.80
2019-05-18T07:22:50.203Z,26.00
2019-05-18T07:23:50.250Z,28.20
2019-05-18T07:24:50.323Z,34.50
2019-05-18T07:25:50.318Z,24.50
2019-05-18T07:26:50.375Z,30.00
2019-05-18T07:27:50.399Z,34.00
2019-05-18T07:28:50.452Z,35.10
2019-05-18T07:29:50.486Z,32.50
2019-05-18T07:30:50.511Z,30.50
2019-05-18T07:31:50.593Z,32.50
2019-05-18T07:32:50.619Z,28.60
2019-05-18T07:33:50.671Z,30.00
2019-05-18T07:34:50.715Z,26.70
2019-05-18T07:35:50.764Z,30.50
2019-05-18T07:36:50.801Z,27.10
2019-05-18T07:37:50.844Z,27.60
2019-05-18T07:38:50.889Z,32.20
2019-05-18T07:39:50.911Z,26.50
2019-05-18T07:40:50.961Z,29.00
2019-05-18T07:41:51.003Z,27.30
2019-05-18T07:42:51.039Z,28.50
2019-05-18T07:43:51.073Z,28.30
2019-05-18T07:44:51.138Z,33.40
2019-05-18T07:45:51.204Z,31.70
2019-05-18T07:46:51.219Z,32.70
2019-05-18T07:47:51.260Z,40.70
2019-05-18T07:48:51.304Z,34.20
2019-05-18T07:49:51.326Z,34.50
2019-05-18T07:50:51.365Z,34.40
2019-05-18T07:51:51.444Z,29.40
2019-05-18T07:52:51.475Z,31.40
2019-05-18T07:53:51.523Z,31.70
2019-05-18T07:54:51.532Z,41.80
2019-05-18T07:55:51.584Z,35.80
2019-05-18T07:56:51.631Z,34.20
2019-05-18T07:57:51.805Z,31.90
2019-05-18T07:58:51.713Z,35.60
2019-05-18T07:59:51.805Z,29.40
2019-05-18T08:00:51.815Z,40.40
2019-05-18T08:01:51.852Z,41.50
2019-05-18T08:02:51.929Z,31.90
2019-05-18T08:03:51.922Z,22.50
2019-05-18T08:04:51.973Z,22.10
2019-05-18T08:05:52.006Z,21.30
2019-05-18T08:06:52.044Z,28.70
2019-05-18T08:07:52.085Z,24.90
2019-05-18T08:08:52.128Z,42.60
2019-05-18T08:09:52.175Z,28.90
2019-05-18T08:10:52.204Z,36.70
2019-05-18T08:11:52.261Z,46.60
2019-05-18T08:12:52.276Z,48.20
2019-05-18T08:13:52.344Z,31.90
2019-05-18T08:14:52.396Z,31.40
2019-05-18T08:15:52.459Z,35.90
2019-05-18T08:16:52.469Z,19.10
2019-05-18T08:17:52.516Z,21.60
2019-05-18T08:18:52.556Z,19.80
2019-05-18T08:19:52.594Z,20.90
2019-05-18T08:20:52.634Z,31.80
2019-05-18T08:21:53.804Z,23.30
2019-05-18T08:22:52.737Z,23.60
2019-05-18T08:23:52.754Z,32.00
2019-05-18T08:24:52.800Z,33.70
2019-05-18T08:25:52.837Z,27.40
2019-05-18T08:26:52.909Z,34.10
2019-05-18T08:27:52.936Z,20.90
2019-05-18T08:28:52.977Z,22.00
2019-05-18T08:29:53.019Z,29.80
2019-05-18T08:30:53.061Z,26.50
2019-05-18T08:31:53.102Z,30.60
2019-05-18T08:32:53.144Z,26.00
2019-05-18T08:33:53.192Z,24.80
2019-05-18T08:34:53.217Z,23.40
2019-05-18T08:35:53.248Z,29.60
2019-05-18T08:36:53.312Z,34.60
2019-05-18T08:37:53.341Z,39.30
2019-05-18T08:38:53.381Z,29.20
2019-05-18T08:39:53.426Z,30.60
2019-05-18T08:40:53.489Z,28.60
2019-05-18T08:41:53.496Z,28.00
2019-05-18T08:42:53.592Z,26.10
2019-05-18T08:43:53.594Z,24.40
2019-05-18T08:44:53.639Z,26.70
2019-05-18T08:45:53.726Z,28.20
2019-05-18T08:46:53.744Z,20.70
2019-05-18T08:47:53.775Z,20.10
2019-05-18T08:48:53.817Z,23.10
2019-05-18T08:49:53.830Z,25.50
2019-05-18T08:50:53.892Z,28.50
2019-05-18T08:52:07.541Z,27.60
2019-05-18T08:52:53.967Z,22.60
2019-05-18T08:53:53.998Z,28.00
2019-05-18T08:54:54.045Z,21.70
2019-05-18T08:55:54.111Z,20.40
2019-05-18T08:56:54.142Z,22.90
2019-05-18T08:57:54.186Z,24.40
2019-05-18T08:58:54.209Z,22.90
2019-05-18T08:59:54.285Z,21.50
2019-05-18T09:00:54.303Z,19.60
2019-05-18T09:01:54.331Z,23.70
2019-05-18T09:02:54.382Z,19.60
2019-05-18T09:03:54.450Z,18.80
2019-05-18T09:04:54.518Z,19.20
2019-05-18T09:05:54.520Z,21.50
2019-05-18T09:06:54.569Z,23.20
2019-05-18T09:07:54.605Z,27.80
2019-05-18T09:08:54.646Z,19.50
2019-05-18T09:09:54.725Z,19.80
2019-05-18T09:10:54.768Z,21.70
2019-05-18T09:11:54.783Z,20.00
2019-05-18T09:12:54.819Z,20.00
2019-05-18T09:13:54.859Z,37.20
2019-05-18T09:14:54.902Z,34.70
2019-05-18T09:15:54.927Z,28.20
2019-05-18T09:16:54.998Z,26.20
2019-05-18T09:17:55.036Z,27.20
2019-05-18T09:18:55.069Z,27.50
2019-05-18T09:19:55.111Z,25.60
2019-05-18T09:20:55.147Z,26.50
2019-05-18T09:21:55.225Z,23.50
2019-05-18T09:22:55.230Z,23.80
2019-05-18T09:23:55.297Z,33.80
2019-05-18T09:24:55.310Z,32.20
2019-05-18T09:25:55.376Z,27.10
2019-05-18T09:26:55.406Z,25.40
2019-05-18T09:27:55.469Z,24.80
2019-05-18T09:28:55.527Z,21.50
2019-05-18T09:29:55.537Z,26.10
2019-05-18T09:30:55.576Z,21.50
2019-05-18T09:31:55.601Z,21.00
2019-05-18T09:32:55.634Z,21.60
2019-05-18T09:33:55.691Z,23.80
2019-05-18T09:34:55.766Z,20.00
2019-05-18T09:35:55.766Z,19.80
2019-05-18T09:36:55.814Z,21.90
2019-05-18T09:37:55.920Z,23.30
2019-05-18T09:38:55.899Z,21.00
2019-05-18T09:39:55.935Z,19.70
2019-05-18T09:40:55.990Z,25.20
2019-05-18T09:41:56.078Z,25.10
2019-05-18T09:42:56.069Z,21.40
2019-05-18T09:43:56.118Z,21.20
2019-05-18T09:44:56.174Z,23.90
2019-05-18T09:45:56.179Z,26.30
2019-05-18T09:46:56.249Z,20.70
2019-05-18T09:47:56.268Z,23.90
2019-05-18T09:48:56.332Z,31.00
2019-05-18T09:49:56.379Z,28.50
2019-05-18T09:50:56.411Z,21.10
2019-05-18T09:51:56.482Z,16.60
2019-05-18T09:52:56.539Z,23.10
2019-05-18T09:53:56.542Z,20.30
2019-05-18T09:54:56.626Z,15.70
2019-05-18T09:55:56.650Z,24.90
2019-05-18T09:56:56.687Z,31.80
2019-05-18T09:57:56.718Z,15.70
2019-05-18T09:58:56.747Z,16.30
2019-05-18T09:59:56.832Z,22.20
2019-05-18T10:00:56.820Z,27.10
2019-05-18T10:01:56.881Z,22.00
2019-05-18T10:02:56.941Z,20.30
2019-05-18T10:03:56.966Z,22.30
2019-05-18T10:04:57.006Z,21.20
2019-05-18T10:05:57.057Z,23.80
2019-05-18T10:06:57.091Z,18.50
2019-05-18T10:07:57.121Z,19.10
2019-05-18T10:08:57.168Z,22.60
2019-05-18T10:09:57.248Z,20.90
2019-05-18T10:10:57.246Z,19.50
2019-05-18T10:11:57.303Z,19.40
2019-05-18T10:12:57.350Z,16.70
2019-05-18T10:13:57.370Z,10.60
2019-05-18T10:14:57.413Z,10.80
2019-05-18T10:15:57.472Z,12.20
2019-05-18T10:16:57.504Z,13.00
2019-05-18T10:17:57.546Z,13.30
2019-05-18T10:18:57.601Z,12.20
2019-05-18T10:19:57.645Z,9.50
2019-05-18T10:20:57.685Z,10.80
2019-05-18T10:21:57.732Z,12.60
2019-05-18T10:23:11.900Z,13.50
2019-05-18T10:23:57.800Z,8.90
2019-05-18T10:24:57.881Z,10.10
2019-05-18T10:25:57.880Z,13.20
2019-05-18T10:26:57.929Z,11.80
2019-05-18T10:27:57.978Z,12.50
2019-05-18T10:28:58.011Z,11.70
2019-05-18T10:29:58.049Z,12.70
2019-05-18T10:30:58.104Z,16.20
2019-05-18T10:31:58.113Z,14.40
2019-05-18T10:32:58.179Z,13.40
2019-05-18T10:33:58.192Z,14.80
2019-05-18T10:34:58.278Z,14.80
2019-05-18T10:35:58.306Z,13.10
2019-05-18T10:36:58.352Z,13.00
2019-05-18T10:37:58.387Z,13.40
2019-05-18T10:38:58.434Z,15.60
2019-05-18T10:39:58.510Z,18.50
2019-05-18T10:40:58.511Z,20.50
2019-05-18T10:41:58.553Z,22.90
2019-05-18T10:42:58.574Z,13.50
2019-05-18T10:43:58.673Z,13.60
2019-05-18T10:44:58.664Z,13.40
2019-05-18T10:45:58.713Z,14.20
2019-05-18T10:46:58.774Z,13.50
2019-05-18T10:47:58.833Z,15.10
2019-05-18T10:48:58.880Z,19.80
2019-05-18T10:49:58.895Z,14.40
2019-05-18T10:50:58.935Z,17.90
2019-05-18T10:51:58.969Z,16.80
2019-05-18T10:52:59.008Z,21.00
2019-05-18T10:53:59.093Z,17.30
2019-05-18T10:54:59.121Z,17.00
2019-05-18T10:55:59.127Z,13.80
2019-05-18T10:56:59.207Z,17.50
2019-05-18T10:57:59.222Z,27.10
2019-05-18T10:58:59.288Z,14.80
2019-05-18T10:59:59.302Z,13.20
2019-05-18T11:00:59.352Z,11.20
2019-05-18T11:01:59.395Z,12.50
2019-05-18T11:02:59.453Z,12.30
2019-05-18T11:03:59.484Z,12.20
2019-05-18T11:04:59.535Z,10.80
2019-05-18T11:05:59.572Z,10.70
2019-05-18T11:06:59.609Z,11.00
2019-05-18T11:07:59.662Z,13.50
2019-05-18T11:08:59.712Z,12.90
2019-05-18T11:09:59.755Z,11.10
2019-05-18T11:10:59.763Z,11.80
2019-05-18T11:11:59.829Z,11.60
2019-05-18T11:12:59.871Z,13.90
2019-05-18T11:13:59.895Z,13.70
2019-05-18T11:14:59.987Z,13.70
2019-05-18T11:16:00.017Z,12.60
2019-05-18T11:17:00.043Z,13.30
2019-05-18T11:18:00.076Z,12.40
2019-05-18T11:19:00.111Z,15.20
2019-05-18T11:20:00.166Z,14.00
2019-05-18T11:21:00.231Z,12.00
2019-05-18T11:22:00.249Z,11.20
2019-05-18T11:23:00.305Z,13.00
2019-05-18T11:24:00.339Z,21.90
2019-05-18T11:25:00.430Z,14.00
2019-05-18T11:26:00.441Z,13.70
2019-05-18T11:27:00.516Z,13.70
2019-05-18T11:28:00.563Z,31.50
2019-05-18T11:29:00.548Z,25.50
2019-05-18T11:30:00.595Z,25.00
2019-05-18T11:31:00.649Z,53.80
2019-05-18T11:32:00.697Z,16.90
2019-05-18T11:33:00.762Z,13.30
2019-05-18T11:34:00.787Z,11.80
2019-05-18T11:35:00.799Z,12.00
2019-05-18T11:36:00.868Z,14.50
2019-05-18T11:37:03.117Z,15.30
2019-05-18T11:38:00.959Z,16.40
2019-05-18T11:39:00.996Z,15.90
2019-05-18T11:40:01.040Z,15.40
2019-05-18T11:41:01.068Z,13.00
2019-05-18T11:42:01.118Z,11.00
2019-05-18T11:43:01.203Z,13.70
2019-05-18T11:44:01.198Z,11.90
2019-05-18T11:45:01.255Z,13.30
2019-05-18T11:46:01.286Z,12.20
2019-05-18T11:47:01.324Z,12.20
2019-05-18T11:48:01.364Z,12.00
2019-05-18T11:49:01.437Z,13.40
2019-05-18T11:50:01.488Z,12.60
2019-05-18T11:51:01.517Z,12.20
2019-05-18T11:52:01.606Z,12.30
2019-05-18T11:53:01.732Z,18.10
2019-05-18T11:54:01.670Z,13.10
2019-05-18T11:55:01.680Z,11.60
2019-05-18T11:56:01.713Z,11.70
2019-05-18T11:57:01.785Z,11.80
2019-05-18T11:58:01.790Z,12.00
2019-05-18T11:59:01.869Z,13.10
2019-05-18T12:00:02.082Z,13.90
2019-05-18T12:01:01.966Z,17.40
2019-05-18T12:02:02.048Z,13.60
2019-05-18T12:03:02.044Z,14.70
2019-05-18T12:04:02.084Z,13.30
2019-05-18T12:05:02.112Z,13.40
2019-05-18T12:06:02.155Z,13.00
2019-05-18T12:07:02.252Z,12.70
2019-05-18T12:08:02.242Z,13.80
2019-05-18T12:09:02.327Z,15.70
2019-05-18T12:10:02.371Z,15.10
2019-05-18T12:11:02.406Z,14.40
2019-05-18T12:12:02.412Z,16.60
2019-05-18T12:13:02.458Z,13.20
2019-05-18T12:14:02.511Z,11.40
2019-05-18T12:15:02.685Z,11.10
2019-05-18T12:16:02.607Z,11.70
2019-05-18T12:17:02.634Z,12.90
2019-05-18T12:18:02.753Z,14.70
2019-05-18T12:19:02.721Z,14.50
2019-05-18T12:20:02.765Z,15.80
2019-05-18T12:21:02.805Z,13.90
2019-05-18T12:22:02.894Z,12.70
2019-05-18T12:23:02.972Z,14.00
2019-05-18T12:24:14.929Z,12.70
2019-05-18T12:25:02.972Z,15.10
2019-05-18T12:26:03.038Z,18.70
2019-05-18T12:27:03.112Z,16.70
2019-05-18T12:28:03.157Z,18.30
2019-05-18T12:29:03.198Z,18.70
2019-05-18T12:30:03.204Z,20.70
2019-05-18T12:31:03.256Z,19.50
2019-05-18T12:32:03.280Z,20.20
2019-05-18T12:33:03.321Z,21.60
2019-05-18T12:34:03.389Z,21.80
2019-05-18T12:35:03.408Z,19.60
2019-05-18T12:36:03.466Z,18.30
2019-05-18T12:37:03.498Z,22.40
2019-05-18T12:38:03.564Z,18.90
2019-05-18T12:39:03.592Z,16.50
2019-05-18T12:40:03.637Z,16.60
2019-05-18T12:41:03.736Z,20.50
2019-05-18T12:42:03.705Z,20.10
2019-05-18T12:43:03.791Z,22.70
2019-05-18T12:44:03.814Z,17.70
2019-05-18T12:45:03.837Z,18.90
2019-05-18T12:46:03.887Z,19.60
2019-05-18T12:47:03.941Z,21.90
2019-05-18T12:48:03.984Z,25.90
2019-05-18T12:49:04.014Z,23.80
2019-05-18T12:50:04.078Z,20.00
2019-05-18T12:51:04.106Z,20.50
2019-05-18T12:52:04.150Z,18.10
2019-05-18T12:53:04.194Z,17.40